Skip Navigation Links Skip Navigation Links

Current Weather

Smith Reynolds, Winston Salem, N.C.

For information only: do not use for flight planning or navigation.
Latest weather
Observation time Thursday, December 13, 2018 12:54 PM EST
Local time Thursday, December 13, 2018 1:14 PM EST
Flight conditions Visual Meteorological Conditions
Winds
Wind direction Southwest (220°)
Wind speed 3 mph
Visibility 10 mi.
Sky condition
Ceiling 9,500 ft. overcast
Cloud layer overcast 9,500 ft.
Temperature 45°F
Dewpoint 29°F
Altimeter 30.27 in.Hg
Pressure change last 3 hours0.03 in.Hg
Pressure falling more quickly
Derived measurements
Relative humidity 53%
Wind chill 44°F
Density altitude -284 ft.
Sea-level pressure 30.28 in.Hg
Climate data
Temperature minimum, last 6 hours 30°F
Temperature maximum, last 6 hours 45°F
Remarks
Automated weather observing station with precipitation discriminator.
METAR KINT 131754Z 22003KT 10SM OVC095 07/M02 A3027 RMK AO2 SLP255 T00721017 10072 21011 58009

Settings

Location code

InnerDrive.Weather 4.0.6770.0 Release CLR 4.0.30319.42000
Copyright ©2018 Inner Drive Technology. All rights reserved. Portions Copyright ©1986-2018 David Braverman.

Find weather

Site navigation


Skip Navigation Links

Place info

Page info

PayPal - The safer, easier way to pay online!

Return home.

Copyright ©2018 Inner Drive Technology. Purveyors of fine, hand-crafted computer software. Page printed 2018-12-13T18:14:45 UTC.